createdAt,value
2023-02-02T00:00:39.812Z,0.26
2023-02-02T00:03:41.610Z,0.23
2023-02-02T00:06:43.293Z,0.25
2023-02-02T00:09:44.986Z,0.31
2023-02-02T00:12:46.709Z,0.36
2023-02-02T00:15:48.426Z,0.32
2023-02-02T00:18:50.047Z,0.24
2023-02-02T00:21:52.526Z,0.21
2023-02-02T00:24:54.363Z,0.21
2023-02-02T00:27:56.531Z,0.26
2023-02-02T00:30:58.297Z,0.33
2023-02-02T00:34:00.339Z,0.43
2023-02-02T00:37:03.525Z,0.48
2023-02-02T00:40:06.063Z,0.48
2023-02-02T00:43:08.127Z,0.46
2023-02-02T00:46:14.960Z,0.41
2023-02-02T00:49:16.582Z,0.39
2023-02-02T00:52:18.237Z,0.36
2023-02-02T00:55:20.164Z,0.28
2023-02-02T00:58:21.820Z,0.24
2023-02-02T01:01:23.787Z,0.22
2023-02-02T01:04:25.628Z,0.16
2023-02-02T01:07:27.444Z,0.10
2023-02-02T01:10:31.167Z,0.09
2023-02-02T01:13:33.472Z,0.08
2023-02-02T01:16:36.259Z,0.06
2023-02-02T01:19:38.051Z,0.05
2023-02-02T01:22:39.870Z,0.05
2023-02-02T01:25:41.525Z,0.03
2023-02-02T01:28:43.314Z,0.03
2023-02-02T01:31:45.038Z,0.03
2023-02-02T01:34:46.681Z,0.08
2023-02-02T01:37:48.323Z,0.18
2023-02-02T01:40:57.193Z,0.27
2023-02-02T01:44:01.371Z,0.31
2023-02-02T01:47:03.064Z,0.31
2023-02-02T01:50:06.448Z,0.32
2023-02-02T01:53:09.501Z,0.34
2023-02-02T01:56:13.396Z,0.30
2023-02-02T01:59:15.451Z,0.28
2023-02-02T02:02:19.592Z,0.28
2023-02-02T02:05:46.391Z,0.28
2023-02-02T02:08:57.016Z,0.25
2023-02-02T02:11:58.945Z,0.24
2023-02-02T02:15:19.282Z,0.26
2023-02-02T02:18:31.257Z,0.29
2023-02-02T02:22:06.640Z,0.28
2023-02-02T02:25:54.528Z,0.27
2023-02-02T02:29:27.253Z,0.24
2023-02-02T02:32:41.076Z,0.20
2023-02-02T02:35:49.422Z,0.16
2023-02-02T02:39:02.645Z,0.17
2023-02-02T02:42:17.509Z,0.20
2023-02-02T02:45:19.883Z,0.21
2023-02-02T02:48:21.784Z,0.13
2023-02-02T02:51:40.229Z,0.11
2023-02-02T02:54:45.855Z,0.13
2023-02-02T02:58:07.207Z,0.10
2023-02-02T03:01:12.928Z,0.03
2023-02-02T03:04:32.437Z,-0.03
2023-02-02T03:08:06.380Z,-0.12
2023-02-02T03:11:10.433Z,-0.21
2023-02-02T03:14:12.818Z,-0.29
2023-02-02T03:17:14.521Z,-0.34
2023-02-02T03:20:16.888Z,-0.38
2023-02-02T03:23:18.945Z,-0.40
2023-02-02T03:26:20.716Z,-0.39
2023-02-02T03:29:23.700Z,-0.38
2023-02-02T03:32:25.671Z,-0.37
2023-02-02T03:35:27.341Z,-0.32
2023-02-02T03:38:28.999Z,-0.26
2023-02-02T03:41:30.639Z,-0.23
2023-02-02T03:44:32.343Z,-0.32
2023-02-02T03:47:33.958Z,-0.50
2023-02-02T03:50:35.643Z,-0.74
2023-02-02T03:53:38.315Z,-0.93
2023-02-02T03:56:40.036Z,-0.96
2023-02-02T03:59:41.669Z,-0.95
2023-02-02T04:02:43.430Z,-0.93
2023-02-02T04:05:45.024Z,-0.89
2023-02-02T04:08:46.718Z,-0.86
2023-02-02T04:11:48.358Z,-0.83
2023-02-02T04:14:49.995Z,-0.77
2023-02-02T04:17:51.631Z,-0.75
2023-02-02T04:21:00.205Z,-0.77
2023-02-02T04:24:01.878Z,-0.85
2023-02-02T04:27:03.539Z,-0.90
2023-02-02T04:30:06.044Z,-0.93
2023-02-02T04:33:07.678Z,-0.94
2023-02-02T04:36:10.544Z,-0.93
2023-02-02T04:39:12.809Z,-0.91
2023-02-02T04:42:14.409Z,-0.93
2023-02-02T04:45:16.143Z,-0.99
2023-02-02T04:48:17.851Z,-1.03
2023-02-02T04:51:19.459Z,-1.09
2023-02-02T04:54:21.334Z,-1.11
2023-02-02T04:57:23.088Z,-1.07
2023-02-02T05:00:24.919Z,-1.02
2023-02-02T05:03:26.594Z,-0.96
2023-02-02T05:06:28.219Z,-0.92
2023-02-02T05:09:29.903Z,-0.88
2023-02-02T05:12:31.619Z,-0.82
2023-02-02T05:15:33.261Z,-0.76
2023-02-02T05:18:35.009Z,-0.69
2023-02-02T05:21:36.755Z,-0.68
2023-02-02T05:24:38.383Z,-0.68
2023-02-02T05:27:43.418Z,-0.72
2023-02-02T05:30:45.085Z,-0.77
2023-02-02T05:33:46.766Z,-0.79
2023-02-02T05:36:49.176Z,-0.81
2023-02-02T05:39:52.379Z,-0.84
2023-02-02T05:42:53.977Z,-0.87
2023-02-02T05:45:55.695Z,-0.89
2023-02-02T05:48:59.309Z,-0.85
2023-02-02T05:52:01.006Z,-0.83
2023-02-02T05:55:03.318Z,-0.81
2023-02-02T05:58:05.021Z,-0.81
2023-02-02T06:01:06.726Z,-0.82
2023-02-02T06:04:08.556Z,-0.87
2023-02-02T06:07:10.424Z,-0.92
2023-02-02T06:10:12.111Z,-1.00
2023-02-02T06:13:13.737Z,-1.07
2023-02-02T06:16:15.674Z,-1.16
2023-02-02T06:19:17.456Z,-1.21
2023-02-02T06:22:19.126Z,-1.23
2023-02-02T06:25:20.898Z,-1.25
2023-02-02T06:28:22.547Z,-1.26
2023-02-02T06:31:24.470Z,-1.22
2023-02-02T06:34:26.234Z,-1.17
2023-02-02T06:37:30.572Z,-1.12
2023-02-02T06:40:32.359Z,-1.07
2023-02-02T06:43:34.011Z,-1.00
2023-02-02T06:46:35.729Z,-0.93
2023-02-02T06:49:37.468Z,-0.90
2023-02-02T06:52:39.109Z,-0.88
2023-02-02T06:55:40.734Z,-0.83
2023-02-02T06:58:42.464Z,-0.78
2023-02-02T07:01:44.204Z,-0.76
2023-02-02T07:04:45.912Z,-0.73
2023-02-02T07:07:47.597Z,-0.70
2023-02-02T07:11:14.056Z,-0.65
2023-02-02T07:14:11.990Z,-0.63
2023-02-02T07:17:13.635Z,-0.65
2023-02-02T07:20:15.319Z,-0.67
2023-02-02T07:23:17.124Z,-0.69
2023-02-02T07:26:19.417Z,-0.71
2023-02-02T07:29:21.118Z,-0.69
2023-02-02T07:32:22.729Z,-0.63
2023-02-02T07:35:25.109Z,-0.57
2023-02-02T07:38:26.963Z,-0.52
2023-02-02T07:41:28.656Z,-0.50
2023-02-02T07:44:30.415Z,-0.46
2023-02-02T07:47:32.016Z,-0.38
2023-02-02T07:50:33.698Z,-0.28
2023-02-02T07:53:35.794Z,-0.17
2023-02-02T07:56:38.252Z,-0.07
2023-02-02T07:59:39.916Z,0.07
2023-02-02T08:02:41.580Z,0.17
2023-02-02T08:05:43.327Z,0.26
2023-02-02T08:08:44.984Z,0.37
2023-02-02T08:11:46.765Z,0.46
2023-02-02T08:14:48.467Z,0.52
2023-02-02T08:17:50.145Z,0.62
2023-02-02T08:20:52.782Z,0.71
2023-02-02T08:23:54.815Z,0.82
2023-02-02T08:26:56.667Z,0.94
2023-02-02T08:29:58.327Z,1.09
2023-02-02T08:32:59.936Z,1.21
2023-02-02T08:36:01.914Z,1.34
2023-02-02T08:39:05.456Z,1.47
2023-02-02T08:42:07.121Z,1.59
2023-02-02T08:46:03.094Z,1.73
2023-02-02T08:48:31.592Z,1.83
2023-02-02T08:51:33.455Z,1.93
2023-02-02T08:54:35.103Z,2.06
2023-02-02T08:57:36.942Z,2.21
2023-02-02T09:00:38.708Z,2.37
2023-02-02T09:03:40.651Z,2.55
2023-02-02T09:06:42.738Z,2.75
2023-02-02T09:09:44.389Z,2.95
2023-02-02T09:12:46.023Z,3.13
2023-02-02T09:15:47.719Z,3.30
2023-02-02T09:18:49.423Z,3.45
2023-02-02T09:21:51.246Z,3.57
2023-02-02T09:24:52.922Z,3.68
2023-02-02T09:27:54.625Z,3.78
2023-02-02T09:30:56.294Z,3.89
2023-02-02T09:34:02.182Z,4.00
2023-02-02T09:37:03.833Z,4.12
2023-02-02T09:40:06.094Z,4.26
2023-02-02T09:43:37.111Z,4.37
2023-02-02T09:46:57.224Z,4.51
2023-02-02T09:50:10.767Z,4.65
2023-02-02T09:53:27.732Z,4.80
2023-02-02T09:56:38.023Z,4.95
2023-02-02T09:59:41.943Z,5.11
2023-02-02T10:02:45.912Z,5.27
2023-02-02T10:06:00.237Z,5.43
2023-02-02T10:09:18.658Z,5.61
2023-02-02T10:12:43.699Z,5.81
2023-02-02T10:16:06.793Z,6.01
2023-02-02T10:19:12.671Z,6.19
2023-02-02T10:22:20.376Z,6.34
2023-02-02T10:25:23.284Z,6.53
2023-02-02T10:28:50.395Z,6.71
2023-02-02T10:32:14.549Z,6.90
2023-02-02T10:35:38.565Z,7.05
2023-02-02T10:38:50.555Z,7.23
2023-02-02T10:42:03.929Z,7.38
2023-02-02T10:45:18.901Z,7.53
2023-02-02T10:48:23.006Z,7.71
2023-02-02T10:51:28.017Z,7.87
2023-02-02T10:54:56.644Z,8.04
2023-02-02T10:58:19.802Z,8.23
2023-02-02T11:01:23.072Z,8.41
2023-02-02T11:04:43.966Z,8.58
2023-02-02T11:07:45.609Z,8.76
2023-02-02T11:10:50.365Z,8.90
2023-02-02T11:13:55.750Z,9.05
2023-02-02T11:17:03.807Z,9.19
2023-02-02T11:20:24.798Z,9.35
2023-02-02T11:23:28.581Z,9.52
2023-02-02T11:26:47.287Z,9.66
2023-02-02T11:29:56.873Z,9.84
2023-02-02T11:32:58.629Z,10.05
2023-02-02T11:36:19.411Z,10.23
2023-02-02T11:39:21.700Z,10.41
2023-02-02T11:42:24.342Z,10.57
2023-02-02T11:45:33.675Z,10.75
2023-02-02T11:48:39.418Z,10.90
2023-02-02T11:51:41.123Z,11.05
2023-02-02T11:54:46.692Z,11.17
2023-02-02T11:58:30.265Z,11.32
2023-02-02T12:01:39.797Z,11.54
2023-02-02T12:04:41.564Z,11.74
2023-02-02T12:07:44.562Z,11.91
2023-02-02T12:10:51.543Z,12.10
2023-02-02T12:14:20.624Z,12.29
2023-02-02T12:17:41.817Z,12.50
2023-02-02T12:20:55.861Z,12.68
2023-02-02T12:24:33.663Z,12.84
2023-02-02T12:28:02.553Z,13.10
2023-02-02T12:31:29.465Z,13.35
2023-02-02T12:34:56.519Z,13.56
2023-02-02T12:38:04.011Z,13.77
2023-02-02T12:41:27.173Z,13.94
2023-02-02T12:44:47.083Z,14.11
2023-02-02T12:48:05.189Z,14.29
2023-02-02T12:51:25.123Z,14.47
2023-02-02T12:54:44.061Z,14.62
2023-02-02T12:58:09.309Z,14.74
2023-02-02T13:01:38.975Z,14.84
2023-02-02T13:04:53.161Z,14.88
2023-02-02T13:08:08.914Z,14.90
2023-02-02T13:11:30.123Z,14.87
2023-02-02T13:14:38.525Z,14.88
2023-02-02T13:17:49.566Z,14.93
2023-02-02T13:21:07.765Z,14.99
2023-02-02T13:24:12.607Z,15.02
2023-02-02T13:27:19.065Z,15.07
2023-02-02T13:30:32.557Z,15.10
2023-02-02T13:33:36.213Z,15.14
2023-02-02T13:36:40.486Z,15.14
2023-02-02T13:40:22.516Z,15.15
2023-02-02T13:43:48.904Z,15.17
2023-02-02T13:47:01.673Z,15.15
2023-02-02T13:50:12.401Z,15.18
2023-02-02T13:53:39.749Z,15.20
2023-02-02T13:56:50.512Z,15.18
2023-02-02T14:00:01.242Z,15.20
2023-02-02T14:03:19.872Z,15.22
2023-02-02T14:06:24.150Z,15.24
2023-02-02T14:09:30.488Z,15.18
2023-02-02T14:12:34.318Z,15.11
2023-02-02T14:15:36.674Z,15.05
2023-02-02T14:18:50.963Z,15.02
2023-02-02T14:22:05.189Z,15.00
2023-02-02T14:25:29.822Z,15.01
2023-02-02T14:28:43.681Z,15.01
2023-02-02T14:31:53.916Z,15.02
2023-02-02T14:34:58.237Z,15.04
2023-02-02T14:38:10.032Z,15.11
2023-02-02T14:41:55.304Z,15.19
2023-02-02T14:45:12.286Z,15.27
2023-02-02T14:48:21.203Z,15.39
2023-02-02T14:51:26.691Z,15.46
2023-02-02T14:54:38.647Z,15.53
2023-02-02T14:57:40.619Z,15.49
2023-02-02T15:00:42.401Z,15.38
2023-02-02T15:03:45.518Z,15.29
2023-02-02T15:06:54.700Z,15.20
2023-02-02T15:09:56.424Z,15.17
2023-02-02T15:13:12.362Z,15.10
2023-02-02T15:16:31.045Z,15.04
2023-02-02T15:19:38.279Z,14.94
2023-02-02T15:23:00.918Z,14.84
2023-02-02T15:26:17.727Z,14.78
2023-02-02T15:29:32.480Z,14.71
2023-02-02T15:32:35.832Z,14.67
2023-02-02T15:35:38.338Z,14.63
2023-02-02T15:38:41.960Z,14.57
2023-02-02T15:41:44.461Z,14.49
2023-02-02T15:44:46.102Z,14.41
2023-02-02T15:47:48.016Z,14.32
2023-02-02T15:50:55.528Z,14.21
2023-02-02T15:53:57.149Z,14.10
2023-02-02T15:57:00.537Z,13.98
2023-02-02T16:00:26.959Z,13.81
2023-02-02T16:03:37.285Z,13.61
2023-02-02T16:06:38.809Z,13.41
2023-02-02T16:09:41.767Z,13.20
2023-02-02T16:12:43.371Z,13.03
2023-02-02T16:15:55.532Z,12.87
2023-02-02T16:19:09.442Z,12.69
2023-02-02T16:22:16.064Z,12.49
2023-02-02T16:25:19.713Z,12.27
2023-02-02T16:28:22.363Z,12.04
2023-02-02T16:31:24.892Z,11.81
2023-02-02T16:34:42.032Z,11.51
2023-02-02T16:37:43.640Z,11.23
2023-02-02T16:40:45.241Z,11.00
2023-02-02T16:43:46.815Z,10.79
2023-02-02T16:46:49.784Z,10.63
2023-02-02T16:49:55.314Z,10.46
2023-02-02T16:53:01.049Z,10.31
2023-02-02T16:56:04.588Z,10.17
2023-02-02T16:59:18.480Z,10.02
2023-02-02T17:02:26.049Z,9.82
2023-02-02T17:05:30.723Z,9.62
2023-02-02T17:08:36.869Z,9.46
2023-02-02T17:11:38.524Z,9.31
2023-02-02T17:14:54.545Z,9.14
2023-02-02T17:17:57.579Z,8.96
2023-02-02T17:21:04.333Z,8.78
2023-02-02T17:24:06.479Z,8.62
2023-02-02T17:27:15.833Z,8.50
2023-02-02T17:30:18.923Z,8.39
2023-02-02T17:33:20.562Z,8.29
2023-02-02T17:36:22.159Z,8.19
2023-02-02T17:39:23.790Z,8.11
2023-02-02T17:42:27.817Z,8.02
2023-02-02T17:45:33.946Z,7.93
2023-02-02T17:48:37.179Z,7.83
2023-02-02T17:51:43.007Z,7.64
2023-02-02T17:54:44.597Z,7.44
2023-02-02T17:57:47.300Z,7.25
2023-02-02T18:00:53.323Z,7.08
2023-02-02T18:03:55.517Z,6.92
2023-02-02T18:06:57.102Z,6.72
2023-02-02T18:09:58.759Z,6.51
2023-02-02T18:13:00.386Z,6.33
2023-02-02T18:16:02.105Z,6.23
2023-02-02T18:19:04.549Z,6.18
2023-02-02T18:22:06.612Z,6.09
2023-02-02T18:25:08.557Z,5.99
2023-02-02T18:28:11.055Z,5.92
2023-02-02T18:31:15.147Z,5.85
2023-02-02T18:34:16.971Z,5.78
2023-02-02T18:37:18.577Z,5.71
2023-02-02T18:40:20.231Z,5.69
2023-02-02T18:43:21.828Z,5.68
2023-02-02T18:46:23.640Z,5.61
2023-02-02T18:49:25.301Z,5.54
2023-02-02T18:52:27.073Z,5.47
2023-02-02T18:55:28.926Z,5.43
2023-02-02T18:58:33.065Z,5.37
2023-02-02T19:01:34.847Z,5.32
2023-02-02T19:04:36.433Z,5.26
2023-02-02T19:07:56.181Z,5.19
2023-02-02T19:11:00.551Z,5.09
2023-02-02T19:14:02.104Z,5.01
2023-02-02T19:17:24.483Z,4.94
2023-02-02T19:20:30.620Z,4.88
2023-02-02T19:23:33.186Z,4.86
2023-02-02T19:26:37.092Z,4.84
2023-02-02T19:29:38.681Z,4.80
2023-02-02T19:32:41.225Z,4.76
2023-02-02T19:35:49.485Z,4.66
2023-02-02T19:39:02.863Z,4.55
2023-02-02T19:42:10.194Z,4.46
2023-02-02T19:45:22.807Z,4.36
2023-02-02T19:48:26.975Z,4.25
2023-02-02T19:51:47.541Z,4.19
2023-02-02T19:54:49.683Z,4.15
2023-02-02T19:58:02.199Z,4.07
2023-02-02T20:01:15.846Z,4.03
2023-02-02T20:04:19.496Z,3.97
2023-02-02T20:07:21.184Z,3.89
2023-02-02T20:10:43.622Z,3.86
2023-02-02T20:13:48.377Z,3.87
2023-02-02T20:16:55.519Z,3.89
2023-02-02T20:19:57.247Z,3.91
2023-02-02T20:22:58.991Z,3.88
2023-02-02T20:26:03.423Z,3.84
2023-02-02T20:29:27.972Z,3.74
2023-02-02T20:32:39.248Z,3.59
2023-02-02T20:35:44.400Z,3.42
2023-02-02T20:38:46.101Z,3.28
2023-02-02T20:41:48.379Z,3.20
2023-02-02T20:44:50.787Z,3.18
2023-02-02T20:47:52.529Z,3.17
2023-02-02T20:50:54.331Z,3.15
2023-02-02T20:53:56.323Z,3.13
2023-02-02T20:56:58.055Z,3.12
2023-02-02T20:59:59.735Z,3.07
2023-02-02T21:03:01.296Z,3.03
2023-02-02T21:06:02.930Z,2.99
2023-02-02T21:09:05.853Z,2.96
2023-02-02T21:12:07.569Z,2.93
2023-02-02T21:15:10.036Z,2.91
2023-02-02T21:18:11.672Z,2.90
2023-02-02T21:21:15.905Z,2.90
2023-02-02T21:24:18.089Z,2.87
2023-02-02T21:27:20.045Z,2.88
2023-02-02T21:30:21.685Z,2.88
2023-02-02T21:33:23.257Z,2.83
2023-02-02T21:36:35.326Z,2.79
2023-02-02T21:39:37.382Z,2.79
2023-02-02T21:42:39.083Z,2.78
2023-02-02T21:45:42.545Z,2.77
2023-02-02T21:48:44.280Z,2.77
2023-02-02T21:51:46.069Z,2.69
2023-02-02T21:54:48.979Z,2.54
2023-02-02T21:57:50.622Z,2.40
2023-02-02T22:00:53.919Z,2.23
2023-02-02T22:03:55.545Z,2.13
2023-02-02T22:07:09.138Z,1.96
2023-02-02T22:10:39.767Z,1.86
2023-02-02T22:13:41.414Z,1.85
2023-02-02T22:16:50.652Z,1.81
2023-02-02T22:20:02.004Z,1.81
2023-02-02T22:23:03.821Z,1.82
2023-02-02T22:26:05.533Z,1.83
2023-02-02T22:29:16.360Z,1.85
2023-02-02T22:32:18.036Z,1.85
2023-02-02T22:35:19.682Z,1.79
2023-02-02T22:38:24.841Z,1.71
2023-02-02T22:41:26.458Z,1.60
2023-02-02T22:44:28.107Z,1.56
2023-02-02T22:47:29.687Z,1.56
2023-02-02T22:50:32.648Z,1.55
2023-02-02T22:53:34.274Z,1.51
2023-02-02T22:56:35.869Z,1.48
2023-02-02T22:59:37.405Z,1.43
2023-02-02T23:02:40.211Z,1.44
2023-02-02T23:05:41.918Z,1.44
2023-02-02T23:08:44.328Z,1.44
2023-02-02T23:11:48.083Z,1.42
2023-02-02T23:14:51.143Z,1.40
2023-02-02T23:17:53.033Z,1.41
2023-02-02T23:20:54.589Z,1.44
2023-02-02T23:23:56.348Z,1.37
2023-02-02T23:26:57.991Z,1.31
2023-02-02T23:29:59.637Z,1.31
2023-02-02T23:33:01.250Z,1.31
2023-02-02T23:36:02.903Z,1.31
2023-02-02T23:39:04.548Z,1.30
2023-02-02T23:42:06.339Z,1.26
2023-02-02T23:45:08.386Z,1.24
2023-02-02T23:48:10.084Z,1.19
2023-02-02T23:51:12.420Z,1.14
2023-02-02T23:54:14.740Z,1.10
2023-02-02T23:57:16.270Z,1.10
